Terminal Aerodrome Forecast
Issued by NWS

Current Version | Previous Version | Text Only | Print | Product List | Glossary On
Versions: 1 2 3 4 5 6 7 8 9 10 11 12 13 14 15
000
FTUS41 KBGM 171138
TAFITH
TAF
KITH 171138Z 1712/1812 10005KT P6SM OVC040
      TEMPO 1712/1714 5SM -FZRAPL OVC030
     FM171400 13006KT 5SM -RA OVC020
     FM171600 14008KT 3SM -RA OVC015
     FM171800 14010KT 3SM -RA BR OVC008
     FM180400 17006KT 3SM -RA BR OVC008=

USA.gov is the U.S. government's official web portal to all federal, state and local government web resources and services.